Time;durP1;ratioP1;P1;durP2;ratioP2;P2;SDS_P1;SDS_P2;PMS_P1;PMS_P2;Temp;Humidity;BMP_temperature;BMP_pressure;BME280_temperature;BME280_humidity;BME280_pressure;Samples;Min_cycle;Max_cycle;Signal;HPM_P1;HPM_P2
2023/07/19 00:01:47;;;;;;;8.70;2.40;;;;;;;14.70;72.81;100327.77;223625;1264;140930;-89
2023/07/19 00:06:48;;;;;;;6.20;2.50;;;;;;;14.67;72.26;100326.52;224078;1264;138415;-89
2023/07/19 00:11:48;;;;;;;6.90;2.50;;;;;;;14.62;73.14;100320.00;223519;1269;141549;-90
2023/07/19 00:16:49;;;;;;;6.10;2.30;;;;;;;14.55;73.37;100310.47;224091;1266;138769;-89
2023/07/19 00:21:49;;;;;;;6.10;2.50;;;;;;;14.50;74.21;100310.67;223593;1264;141653;-88
2023/07/19 00:26:50;;;;;;;5.60;2.40;;;;;;;14.45;74.29;100302.15;224134;1264;139043;-90
2023/07/19 00:31:51;;;;;;;5.10;2.80;;;;;;;14.39;74.70;100302.35;223620;1268;140641;-89
2023/07/19 00:36:51;;;;;;;6.40;2.30;;;;;;;14.35;74.74;100301.35;223954;1264;139601;-89
2023/07/19 00:41:53;;;;;;;9.40;3.00;;;;;;;14.30;74.96;100303.27;223408;1264;140942;-90
2023/07/19 00:46:53;;;;;;;8.10;2.60;;;;;;;14.28;75.89;100297.68;223966;1264;139199;-90
2023/07/19 00:51:56;;;;;;;6.70;2.50;;;;;;;14.25;75.76;100288.60;223491;1264;142006;-90
2023/07/19 00:56:58;;;;;;;7.30;2.50;;;;;;;14.19;75.60;100282.84;224031;1264;138661;-89
2023/07/19 01:01:59;;;;;;;8.60;2.60;;;;;;;14.13;76.09;100275.90;223496;1264;140360;-89
2023/07/19 01:07:01;;;;;;;7.10;2.80;;;;;;;14.08;76.48;100280.83;223994;1264;139594;-89
2023/07/19 01:12:04;;;;;;;7.40;3.00;;;;;;;14.02;76.45;100275.80;223483;1264;140997;-89
2023/07/19 01:17:05;;;;;;;5.20;2.50;;;;;;;13.98;76.96;100272.59;223957;1268;138759;-89
2023/07/19 01:22:05;;;;;;;9.70;3.20;;;;;;;13.94;77.39;100270.15;223489;1264;140876;-89
2023/07/19 01:27:06;;;;;;;5.60;2.40;;;;;;;13.92;77.81;100266.61;224061;1264;138886;-90
2023/07/19 01:32:07;;;;;;;5.20;2.60;;;;;;;13.88;77.94;100258.10;223527;1264;140946;-90
2023/07/19 01:37:07;;;;;;;7.70;2.50;;;;;;;13.84;78.15;100254.48;224046;1264;138351;-89
2023/07/19 01:42:08;;;;;;;4.80;2.30;;;;;;;13.82;78.22;100244.92;223493;1264;140344;-89
2023/07/19 01:47:08;;;;;;;9.20;3.60;;;;;;;13.80;78.40;100246.35;224079;1264;139984;-90
2023/07/19 01:52:09;;;;;;;4.30;1.90;;;;;;;13.77;78.57;100240.77;223390;1268;141551;-89
2023/07/19 01:57:10;;;;;;;5.30;2.20;;;;;;;13.73;77.72;100238.89;224059;1264;139288;-89
2023/07/19 02:02:11;;;;;;;7.30;2.60;;;;;;;13.71;78.74;100237.23;223602;1264;142540;-88
2023/07/19 02:07:12;;;;;;;9.50;3.00;;;;;;;13.68;79.12;100240.64;224237;1264;96101;-90
2023/07/19 02:12:12;;;;;;;7.10;2.60;;;;;;;13.65;79.62;100240.35;223418;1264;140435;-89
2023/07/19 02:17:13;;;;;;;6.30;2.50;;;;;;;13.59;79.34;100234.60;224007;1264;139461;-89
2023/07/19 02:22:16;;;;;;;6.00;2.40;;;;;;;13.56;80.12;100226.09;223406;1264;142621;-88
2023/07/19 02:27:17;;;;;;;8.70;3.40;;;;;;;13.54;80.16;100222.23;224079;1264;138808;-89
2023/07/19 02:32:17;;;;;;;9.20;3.50;;;;;;;13.49;79.65;100225.02;223569;1264;140359;-89
2023/07/19 02:37:18;;;;;;;7.30;3.10;;;;;;;13.46;80.21;100222.02;224175;1264;96005;-89
2023/07/19 02:42:18;;;;;;;10.60;3.50;;;;;;;13.43;80.01;100223.37;223511;1264;139912;-89
2023/07/19 02:47:19;;;;;;;11.40;3.30;;;;;;;13.39;80.36;100215.25;224034;1263;140210;-90
2023/07/19 02:52:19;;;;;;;10.70;3.60;;;;;;;13.37;80.17;100214.48;223455;1264;140754;-89
2023/07/19 02:57:20;;;;;;;7.20;3.60;;;;;;;13.36;80.48;100209.58;224056;1264;139344;-90
2023/07/19 03:02:21;;;;;;;9.60;3.00;;;;;;;13.35;80.56;100206.81;223560;1264;140308;-90
2023/07/19 03:07:21;;;;;;;6.10;2.90;;;;;;;13.35;80.87;100208.31;224220;1264;95993;-90
2023/07/19 03:12:22;;;;;;;7.80;3.20;;;;;;;13.33;81.20;100208.17;223485;1264;141028;-90
2023/07/19 03:17:23;;;;;;;6.00;2.70;;;;;;;13.33;80.66;100212.03;224033;1265;138858;-91
2023/07/19 03:22:23;;;;;;;8.90;3.70;;;;;;;13.33;80.72;100212.74;223504;1264;140382;-89
2023/07/19 03:27:24;;;;;;;6.30;3.10;;;;;;;13.34;81.37;100218.20;223994;1264;138921;-90
2023/07/19 03:32:24;;;;;;;9.30;3.70;;;;;;;13.34;81.72;100223.16;223346;1264;140504;-89
2023/07/19 03:37:25;;;;;;;9.10;3.30;;;;;;;13.34;82.15;100217.48;224118;1264;95882;-89
2023/07/19 03:42:26;;;;;;;8.70;3.40;;;;;;;13.34;81.43;100218.51;223507;1264;140625;-88
2023/07/19 03:47:26;;;;;;;10.80;3.80;;;;;;;13.36;81.54;100218.11;224115;1263;138775;-88
2023/07/19 03:52:27;;;;;;;9.20;3.80;;;;;;;13.40;82.73;100218.80;223558;1264;140707;-89
2023/07/19 03:57:27;;;;;;;11.60;4.30;;;;;;;13.46;83.05;100213.02;224180;1264;139964;-88
2023/07/19 04:02:27;;;;;;;10.30;4.10;;;;;;;13.52;82.90;100206.51;223563;1264;140723;-89
2023/07/19 04:07:28;;;;;;;11.50;4.50;;;;;;;13.58;83.18;100200.63;224198;1264;97036;-88
2023/07/19 04:12:28;;;;;;;11.40;4.80;;;;;;;13.66;84.23;100200.13;223571;1264;141656;-88
2023/07/19 04:17:29;;;;;;;11.10;4.80;;;;;;;13.75;84.65;100189.48;224099;1264;139141;-88
2023/07/19 04:22:29;;;;;;;11.60;5.20;;;;;;;13.84;84.91;100191.64;223477;1264;141176;-88
2023/07/19 04:27:31;;;;;;;15.80;7.10;;;;;;;13.91;83.61;100184.09;224115;1264;138972;-87
2023/07/19 04:32:31;;;;;;;13.80;5.90;;;;;;;14.03;83.10;100179.52;223519;1264;141644;-88
2023/07/19 04:37:32;;;;;;;15.50;5.90;;;;;;;14.21;82.72;100177.98;224215;1264;95866;-88
2023/07/19 04:42:33;;;;;;;14.70;5.50;;;;;;;14.49;82.35;100174.58;223498;1264;140348;-88
2023/07/19 04:47:33;;;;;;;13.00;5.50;;;;;;;14.77;81.48;100172.83;224036;1264;139050;-88
2023/07/19 04:52:34;;;;;;;16.30;5.20;;;;;;;14.92;80.91;100170.20;223553;1264;140348;-88
2023/07/19 04:57:34;;;;;;;16.80;5.30;;;;;;;15.05;80.33;100173.23;224104;1264;139219;-88
2023/07/19 05:02:36;;;;;;;16.40;5.00;;;;;;;15.31;79.49;100168.73;223585;1264;142278;-87
2023/07/19 05:07:37;;;;;;;19.00;5.40;;;;;;;15.60;77.94;100167.42;224146;1264;95975;-88
2023/07/19 05:12:38;;;;;;;16.10;5.10;;;;;;;15.93;76.44;100169.73;223574;1264;140749;-88
2023/07/19 05:17:38;;;;;;;15.70;4.40;;;;;;;16.12;75.38;100166.52;224056;1264;138879;-89
2023/07/19 05:22:39;;;;;;;13.00;4.40;;;;;;;16.35;75.26;100171.85;223433;1264;140881;-89
2023/07/19 05:27:39;;;;;;;18.20;4.70;;;;;;;16.59;74.32;100160.77;224090;1264;139135;-88
2023/07/19 05:32:40;;;;;;;14.00;5.00;;;;;;;16.97;73.51;100164.83;223526;1264;141099;-87
2023/07/19 05:37:41;;;;;;;15.20;4.00;;;;;;;17.53;73.52;100161.64;224251;1264;95911;-88
2023/07/19 05:42:41;;;;;;;11.50;4.00;;;;;;;18.25;71.06;100156.40;223495;1264;141333;-88
2023/07/19 05:47:42;;;;;;;13.80;4.00;;;;;;;18.95;69.50;100152.77;224073;1264;138682;-88
2023/07/19 05:52:42;;;;;;;11.20;3.70;;;;;;;19.60;67.18;100160.73;223547;1264;141969;-88
2023/07/19 05:57:42;;;;;;;8.70;3.70;;;;;;;20.20;65.03;100153.43;224127;1264;138773;-88
2023/07/19 06:02:43;;;;;;;13.50;3.60;;;;;;;20.87;63.88;100161.65;223473;1265;141439;-86
2023/07/19 06:07:45;;;;;;;10.50;3.10;;;;;;;21.58;61.41;100163.13;224258;1264;95873;-87
2023/07/19 06:12:48;;;;;;;14.60;3.50;;;;;;;22.26;57.57;100168.36;223562;1264;139544;-87
2023/07/19 06:17:48;;;;;;;13.00;3.40;;;;;;;22.75;55.30;100164.02;224048;1264;140557;-87
2023/07/19 06:22:49;;;;;;;12.60;3.20;;;;;;;23.13;53.87;100154.09;223545;1264;139922;-85
2023/07/19 06:27:49;;;;;;;7.90;2.90;;;;;;;23.66;52.11;100150.32;224150;1264;138372;-88
2023/07/19 06:32:50;;;;;;;7.80;2.60;;;;;;;24.07;49.67;100158.02;223600;1264;139548;-87
2023/07/19 06:37:50;;;;;;;7.10;2.50;;;;;;;24.43;48.67;100154.52;224227;1264;96090;-87
2023/07/19 06:42:51;;;;;;;8.50;2.30;;;;;;;24.91;48.23;100153.14;223497;1264;139800;-88
2023/07/19 06:47:51;;;;;;;10.50;2.60;;;;;;;25.15;46.12;100147.73;224066;1264;137956;-89
2023/07/19 06:52:52;;;;;;;10.70;2.70;;;;;;;25.28;46.80;100149.03;223602;1264;140322;-91
2023/07/19 06:57:52;;;;;;;8.00;2.50;;;;;;;25.47;45.19;100155.30;223916;1264;138146;-89
2023/07/19 07:02:53;;;;;;;7.80;2.50;;;;;;;25.54;44.66;100156.91;223466;1264;140146;-90
2023/07/19 07:07:53;;;;;;;11.70;2.70;;;;;;;25.71;45.35;100142.08;224184;1264;95997;-89
2023/07/19 07:12:54;;;;;;;6.40;2.30;;;;;;;26.01;43.87;100134.85;223443;1263;139960;-90
2023/07/19 07:17:54;;;;;;;6.70;2.60;;;;;;;26.20;42.74;100131.63;224062;1264;137905;-88
2023/07/19 07:22:55;;;;;;;5.90;2.20;;;;;;;26.33;42.20;100131.65;223575;1264;141486;-89
2023/07/19 07:27:56;;;;;;;9.20;2.80;;;;;;;26.38;40.50;100125.02;224235;1264;138069;-90
2023/07/19 07:32:57;;;;;;;7.00;2.40;;;;;;;26.39;40.58;100117.11;223535;1264;140795;-90
2023/07/19 07:37:58;;;;;;;11.40;2.90;;;;;;;26.28;39.55;100108.81;224183;1264;95952;-89
2023/07/19 07:42:58;;;;;;;9.40;2.20;;;;;;;26.28;40.31;100105.38;223482;1264;139742;-90
2023/07/19 07:47:58;;;;;;;6.20;2.20;;;;;;;26.35;39.69;100111.00;224067;1264;137760;-88
2023/07/19 07:52:59;;;;;;;7.30;2.40;;;;;;;26.39;39.76;100102.95;223542;1264;138927;-90
2023/07/19 07:58:00;;;;;;;7.10;2.00;;;;;;;26.55;40.14;100090.56;224081;1264;138442;-91
2023/07/19 08:03:01;;;;;;;6.00;2.00;;;;;;;26.63;38.30;100090.02;223435;1264;139939;-89
2023/07/19 08:08:03;;;;;;;5.30;2.10;;;;;;;26.57;38.52;100086.39;224187;1265;96244;-89
2023/07/19 08:13:05;;;;;;;7.90;2.20;;;;;;;26.77;40.12;100077.45;223504;1265;139355;-89
2023/07/19 08:18:05;;;;;;;6.10;1.90;;;;;;;26.97;38.11;100080.00;224032;1264;138347;-89
2023/07/19 08:23:06;;;;;;;6.60;2.00;;;;;;;27.10;37.35;100078.60;223581;1264;139825;-86
2023/07/19 08:28:06;;;;;;;7.10;2.30;;;;;;;27.60;37.43;100075.20;224135;1264;137986;-88
2023/07/19 08:33:08;;;;;;;7.20;2.60;;;;;;;28.14;36.99;100068.66;223597;1264;139574;-86
2023/07/19 08:38:09;;;;;;;7.20;2.50;;;;;;;28.82;35.34;100071.52;224106;1265;141101;-86
2023/07/19 08:43:09;;;;;;;4.90;2.20;;;;;;;29.24;34.13;100068.77;223598;1264;139503;-87
2023/07/19 08:48:10;;;;;;;3.00;1.70;;;;;;;29.67;33.99;100063.92;223993;1265;137888;-88
2023/07/19 08:53:10;;;;;;;6.30;1.90;;;;;;;30.14;33.44;100054.11;223453;1264;140244;-86
2023/07/19 08:58:11;;;;;;;3.90;1.70;;;;;;;30.28;31.78;100055.29;224101;1263;138185;-88
2023/07/19 09:03:11;;;;;;;4.20;1.90;;;;;;;30.14;31.92;100053.70;223423;1264;139750;-87
2023/07/19 09:08:12;;;;;;;4.50;2.20;;;;;;;29.94;31.11;100049.39;224100;1264;138274;-88
2023/07/19 09:13:19;;;;;;;5.60;2.50;;;;;;;29.86;32.26;100040.84;223642;1264;140642;-87
2023/07/19 09:18:20;;;;;;;7.00;2.60;;;;;;;30.47;33.08;100038.11;224108;1264;138326;-86
2023/07/19 09:23:20;;;;;;;7.30;2.70;;;;;;;30.85;31.59;100034.18;223413;1264;140335;-87
2023/07/19 09:28:24;;;;;;;9.80;2.80;;;;;;;31.19;33.18;100025.45;224116;1264;138064;-85
2023/07/19 09:33:28;;;;;;;4.30;2.10;;;;;;;31.73;31.18;100027.41;223509;1264;140213;-88
2023/07/19 09:38:29;;;;;;;5.30;2.60;;;;;;;31.91;31.07;100019.83;223922;1264;192780;-88
2023/07/19 09:43:33;;;;;;;6.50;2.20;;;;;;;32.38;31.86;100013.52;223666;1264;139994;-86
2023/07/19 09:48:34;;;;;;;;;;;;;;;32.68;30.97;100016.30;224077;1265;138513;-89
2023/07/19 09:53:37;;;;;;;5.80;2.10;;;;;;;32.84;29.11;100018.89;223636;1264;127089;-86
2023/07/19 09:58:39;;;;;;;4.90;2.30;;;;;;;32.51;28.44;100012.05;224129;1264;138960;-88
2023/07/19 10:03:43;;;;;;;5.20;2.10;;;;;;;31.77;29.54;100009.70;223483;1264;140187;-88
2023/07/19 10:08:44;;;;;;;6.00;2.00;;;;;;;31.53;29.18;100010.77;224111;1266;139367;-85
2023/07/19 10:13:58;;;;;;;4.30;1.90;;;;;;;31.32;29.24;100009.23;223774;1264;139790;-90
2023/07/19 10:19:13;;;;;;;4.70;1.70;;;;;;;31.26;29.24;100007.36;223520;1263;163684;-88
2023/07/19 10:24:17;;;;;;;5.10;1.80;;;;;;;31.05;29.92;100000.73;224113;1264;137804;-85
2023/07/19 10:29:17;;;;;;;5.90;1.50;;;;;;;30.75;29.62;99999.39;223634;1264;140261;-86
2023/07/19 10:34:28;;;;;;;6.00;1.40;;;;;;;30.78;27.57;99992.42;224122;1264;137953;-87
2023/07/19 10:39:29;;;;;;;6.60;1.90;;;;;;;30.99;28.71;99989.45;223515;1264;139716;-86
2023/07/19 10:44:29;;;;;;;7.40;1.90;;;;;;;31.39;27.84;99985.44;224150;1264;137937;-87
2023/07/19 10:49:31;;;;;;;3.90;1.50;;;;;;;31.67;28.22;99980.27;223709;1264;140763;-86
2023/07/19 10:54:31;;;;;;;4.70;2.10;;;;;;;32.01;27.96;99971.07;224079;1266;137674;-87
2023/07/19 10:59:33;;;;;;;4.60;1.80;;;;;;;32.01;27.57;99970.25;223615;1266;140324;-87
2023/07/19 11:04:35;;;;;;;4.60;1.80;;;;;;;32.13;28.83;99957.04;224131;1264;138292;-86
2023/07/19 11:09:36;;;;;;;4.30;1.60;;;;;;;32.68;28.37;99955.30;223663;1266;139188;-87
2023/07/19 11:14:41;;;;;;;4.00;1.80;;;;;;;33.18;27.97;99945.32;224180;1264;138175;-87
2023/07/19 11:19:44;;;;;;;5.70;2.10;;;;;;;33.48;27.09;99945.80;223665;1264;140200;-87
2023/07/19 11:24:49;;;;;;;5.70;2.20;;;;;;;33.68;27.70;99942.69;224193;1265;138131;-86
2023/07/19 11:29:50;;;;;;;3.70;1.60;;;;;;;34.24;27.81;99940.07;223562;1264;140254;-87
2023/07/19 11:34:52;;;;;;;4.40;1.60;;;;;;;34.98;27.77;99937.09;224166;1264;137920;-87
2023/07/19 11:39:54;;;;;;;5.30;2.00;;;;;;;35.51;26.15;99938.20;223663;1266;141487;-88
2023/07/19 11:44:55;;;;;;;4.30;1.90;;;;;;;35.41;25.12;99938.85;224109;1265;138413;-87
2023/07/19 11:49:55;;;;;;;4.40;1.70;;;;;;;35.35;24.90;99926.92;223685;1264;139219;-87
2023/07/19 11:54:56;;;;;;;4.90;1.90;;;;;;;35.16;25.59;99921.98;224120;1266;138071;-85
2023/07/19 11:59:56;;;;;;;4.40;1.70;;;;;;;34.88;25.03;99913.55;223646;1266;139784;-87
2023/07/19 12:04:56;;;;;;;4.70;1.90;;;;;;;34.49;26.14;99907.64;224176;1268;138050;-86
2023/07/19 12:09:57;;;;;;;4.50;1.90;;;;;;;34.36;26.57;99910.89;223635;1265;141243;-86
2023/07/19 12:15:04;;;;;;;6.20;1.80;;;;;;;34.16;26.48;99904.23;224171;1266;138546;-86
2023/07/19 12:20:07;;;;;;;9.10;1.90;;;;;;;34.08;26.41;99891.33;223628;1265;140103;-86
2023/07/19 12:25:08;;;;;;;5.40;1.80;;;;;;;34.10;26.88;99893.41;224073;1267;138194;-86
2023/07/19 12:30:10;;;;;;;5.50;2.10;;;;;;;33.95;26.41;99890.74;223648;1265;139890;-88
2023/07/19 12:35:10;;;;;;;9.00;1.80;;;;;;;33.42;26.24;99881.45;223970;1266;138077;-87
2023/07/19 12:40:11;;;;;;;5.90;2.30;;;;;;;33.41;27.06;99871.43;223520;1265;139970;-86
2023/07/19 12:45:13;;;;;;;5.20;2.50;;;;;;;33.35;27.10;99869.98;224130;1264;137764;-87
2023/07/19 12:50:14;;;;;;;6.70;2.30;;;;;;;33.36;27.48;99870.27;223682;1264;140579;-86
2023/07/19 12:55:14;;;;;;;3.20;1.70;;;;;;;33.16;27.50;99871.96;224229;1264;96094;-86
2023/07/19 13:00:16;;;;;;;5.50;1.80;;;;;;;33.16;27.68;99870.78;223644;1264;139002;-87
2023/07/19 13:05:17;;;;;;;7.50;2.10;;;;;;;33.14;28.07;99867.55;224089;1264;138606;-88
2023/07/19 13:10:18;;;;;;;5.90;2.00;;;;;;;33.10;27.91;99864.67;223650;1266;139981;-85
2023/07/19 13:15:19;;;;;;;4.10;1.60;;;;;;;32.88;27.45;99861.36;224181;1264;138935;-87
2023/07/19 13:20:19;;;;;;;5.00;2.00;;;;;;;32.73;28.17;99848.16;223620;1264;139831;-86
2023/07/19 13:25:20;;;;;;;4.80;2.00;;;;;;;32.67;28.29;99845.27;224295;1266;95996;-85
2023/07/19 13:30:20;;;;;;;5.70;2.10;;;;;;;32.56;27.68;99843.05;223610;1266;139664;-86
2023/07/19 13:35:20;;;;;;;5.50;1.80;;;;;;;32.57;27.85;99839.45;224179;1264;138038;-86
2023/07/19 13:40:21;;;;;;;4.00;1.50;;;;;;;32.28;26.69;99835.14;223550;1265;140912;-86
2023/07/19 13:45:21;;;;;;;4.90;1.70;;;;;;;32.09;27.84;99832.39;224123;1266;138614;-86
2023/07/19 13:50:22;;;;;;;2.70;1.50;;;;;;;31.89;28.17;99818.69;223514;1266;139168;-87
2023/07/19 13:55:22;;;;;;;2.80;1.50;;;;;;;32.00;28.16;99818.19;224246;1264;95947;-86
2023/07/19 14:00:24;;;;;;;3.30;1.60;;;;;;;32.27;28.50;99806.67;223631;1264;141573;-86
2023/07/19 14:05:24;;;;;;;4.20;1.60;;;;;;;32.27;28.38;99806.63;224167;1264;138360;-85
2023/07/19 14:10:25;;;;;;;6.10;2.00;;;;;;;32.22;28.06;99806.02;223602;1264;139702;-86
2023/07/19 14:15:25;;;;;;;6.70;1.90;;;;;;;32.10;28.18;99804.12;224129;1264;138573;-86
2023/07/19 14:20:26;;;;;;;4.20;2.30;;;;;;;31.88;27.74;99801.89;223534;1266;139854;-85
2023/07/19 14:31:03;;;;;;;5.60;2.00;;;;;;;31.52;29.08;99799.73;224038;1268;95604;-93
2023/07/19 14:36:04;;;;;;;5.90;1.90;;;;;;;31.28;28.76;99798.83;224008;1268;137832;-90
2023/07/19 14:41:04;;;;;;;5.10;1.90;;;;;;;30.90;28.77;99790.20;223496;1268;139263;-93
2023/07/19 14:46:05;;;;;;;5.10;1.90;;;;;;;30.73;29.40;99789.59;223983;1267;139098;-92
2023/07/19 14:51:05;;;;;;;3.60;1.80;;;;;;;30.65;30.09;99786.70;223313;1268;140420;-91
2023/07/19 14:56:07;;;;;;;5.00;2.20;;;;;;;30.46;30.20;99783.64;224036;1268;95569;-93
2023/07/19 15:01:08;;;;;;;4.90;1.90;;;;;;;30.38;30.71;99779.95;223507;1268;142240;-92
2023/07/19 15:06:10;;;;;;;7.80;2.50;;;;;;;30.34;30.43;99775.74;223785;1268;137847;-93
2023/07/19 15:11:11;;;;;;;4.20;1.80;;;;;;;30.05;30.18;99776.65;223479;1268;142216;-91
2023/07/19 15:16:12;;;;;;;6.30;2.30;;;;;;;29.72;30.66;99782.36;223959;1267;137819;-89
2023/07/19 15:21:12;;;;;;;5.10;2.50;;;;;;;29.60;31.20;99788.61;223488;1267;141779;-93
2023/07/19 15:26:13;;;;;;;6.30;2.00;;;;;;;29.36;30.81;99784.34;224184;1267;95621;-93
2023/07/19 15:31:14;;;;;;;5.60;2.70;;;;;;;29.01;31.52;99784.94;223396;1267;141012;-90
2023/07/19 15:36:14;;;;;;;5.60;2.30;;;;;;;28.77;31.68;99784.87;224102;1267;137810;-89
2023/07/19 15:41:14;;;;;;;4.50;2.20;;;;;;;28.48;31.88;99785.49;223456;1267;141283;-91
2023/07/19 15:46:15;;;;;;;6.40;2.30;;;;;;;28.24;32.00;99785.86;224009;1267;138082;-94
2023/07/19 15:51:15;;;;;;;5.60;2.10;;;;;;;28.08;32.76;99781.97;223529;1267;142117;-87
2023/07/19 15:56:16;;;;;;;5.90;2.10;;;;;;;27.98;33.33;99787.77;224184;1267;95595;-88
2023/07/19 16:01:16;;;;;;;5.50;2.20;;;;;;;27.81;34.08;99789.98;223570;1267;141477;-90
2023/07/19 16:06:17;;;;;;;9.20;1.90;;;;;;;27.55;35.34;99804.11;224111;1267;137888;-90
2023/07/19 16:11:17;;;;;;;8.00;1.90;;;;;;;27.18;36.28;99814.55;223390;1267;140484;-88
2023/07/19 16:16:18;;;;;;;5.10;1.80;;;;;;;26.87;37.41;99809.08;223991;1267;138487;-88
2023/07/19 16:21:18;;;;;;;4.80;1.90;;;;;;;26.73;37.92;99811.60;223445;1267;140152;-90
2023/07/19 16:26:19;;;;;;;4.90;1.90;;;;;;;26.65;38.68;99806.34;224178;1267;138047;-86
2023/07/19 16:31:22;;;;;;;4.10;1.90;;;;;;;26.59;39.20;99798.85;223714;1267;139566;-85
2023/07/19 16:36:25;;;;;;;7.50;1.90;;;;;;;26.47;39.82;99796.58;223922;1267;138282;-88
2023/07/19 16:41:25;;;;;;;5.70;1.70;;;;;;;26.20;40.22;99786.83;223578;1267;139441;-86
2023/07/19 16:46:26;;;;;;;5.70;2.10;;;;;;;25.83;40.70;99787.86;224111;1267;138395;-91
2023/07/19 16:51:27;;;;;;;6.10;1.90;;;;;;;25.61;41.08;99784.67;223470;1267;141878;-87
2023/07/19 16:56:28;;;;;;;4.40;2.00;;;;;;;25.39;41.29;99794.39;223993;1268;138707;-88
2023/07/19 17:01:28;;;;;;;7.00;2.20;;;;;;;25.23;42.00;99801.44;223638;1267;140106;-89
2023/07/19 17:06:29;;;;;;;6.10;1.50;;;;;;;25.09;42.19;99800.01;224095;1267;138009;-88
2023/07/19 17:11:30;;;;;;;6.10;1.90;;;;;;;24.96;42.79;99797.40;223553;1267;140801;-91
2023/07/19 17:16:30;;;;;;;3.60;1.70;;;;;;;24.81;43.02;99797.29;224070;1267;137833;-91
2023/07/19 17:21:31;;;;;;;8.10;2.00;;;;;;;24.66;43.48;99800.13;223437;1267;143832;-89
2023/07/19 17:26:31;;;;;;;4.60;1.90;;;;;;;24.50;43.87;99799.48;224088;1267;138018;-85
2023/07/19 17:31:31;;;;;;;5.00;2.10;;;;;;;24.40;44.13;99803.80;223683;1267;141243;-90
2023/07/19 17:36:32;;;;;;;9.10;2.50;;;;;;;24.21;45.16;99807.15;224134;1267;137736;-88
2023/07/19 17:41:33;;;;;;;5.40;2.10;;;;;;;23.85;47.25;99808.59;223473;1267;140606;-89
2023/07/19 17:46:33;;;;;;;7.80;2.50;;;;;;;23.51;48.20;99809.16;224078;1267;138582;-85
2023/07/19 17:51:34;;;;;;;6.10;2.10;;;;;;;23.22;49.49;99811.09;223512;1271;141483;-87
2023/07/19 17:56:34;;;;;;;6.80;2.00;;;;;;;23.01;49.66;99816.17;224045;1267;137854;-88
2023/07/19 18:01:34;;;;;;;9.30;2.20;;;;;;;22.88;50.21;99818.52;223560;1267;140906;-87
2023/07/19 18:06:35;;;;;;;7.10;2.00;;;;;;;22.75;51.07;99818.66;224079;1267;137587;-87
2023/07/19 18:11:35;;;;;;;5.70;2.30;;;;;;;22.61;51.42;99822.16;223628;1267;140568;-85
2023/07/19 18:16:36;;;;;;;4.40;2.00;;;;;;;22.59;51.20;99826.27;224098;1267;137763;-86
2023/07/19 18:21:36;;;;;;;5.50;2.50;;;;;;;22.57;51.30;99833.26;223538;1267;140349;-85
2023/07/19 18:26:36;;;;;;;9.40;2.80;;;;;;;22.51;51.81;99834.17;224102;1267;138798;-88
2023/07/19 18:31:38;;;;;;;8.90;2.50;;;;;;;22.44;51.95;99836.96;223622;1268;139548;-89
2023/07/19 18:36:38;;;;;;;7.20;2.20;;;;;;;22.39;52.27;99840.58;223971;1268;137701;-87
2023/07/19 18:41:38;;;;;;;6.00;2.10;;;;;;;22.23;52.55;99837.23;223451;1268;140777;-87
2023/07/19 18:46:39;;;;;;;9.00;2.60;;;;;;;22.10;52.50;99833.39;224068;1268;137942;-87
2023/07/19 18:51:40;;;;;;;8.00;2.30;;;;;;;22.01;52.81;99834.05;223519;1267;141565;-88
2023/07/19 18:56:40;;;;;;;10.40;2.70;;;;;;;21.88;53.36;99828.80;224113;1267;138867;-88
2023/07/19 19:01:41;;;;;;;7.50;2.40;;;;;;;21.76;53.80;99834.54;223638;1267;141406;-87
2023/07/19 19:06:41;;;;;;;6.50;2.80;;;;;;;21.58;54.22;99833.13;223901;1267;138048;-88
2023/07/19 19:11:42;;;;;;;5.00;2.40;;;;;;;21.41;54.64;99840.42;223491;1267;139819;-86
2023/07/19 19:16:43;;;;;;;7.90;2.90;;;;;;;21.31;55.02;99845.41;224077;1267;139066;-86
2023/07/19 19:21:44;;;;;;;5.00;2.20;;;;;;;21.25;55.61;99848.58;223545;1267;142495;-87
2023/07/19 19:26:47;;;;;;;8.50;3.20;;;;;;;21.17;56.06;99858.55;224094;1267;137971;-86
2023/07/19 19:31:48;;;;;;;5.70;2.50;;;;;;;21.09;56.10;99854.42;223616;1267;140968;-86
2023/07/19 19:36:48;;;;;;;6.20;2.60;;;;;;;20.98;56.52;99856.56;224100;1267;138691;-86
2023/07/19 19:41:49;;;;;;;9.10;2.60;;;;;;;20.85;56.84;99855.52;223430;1267;140512;-85
2023/07/19 19:46:49;;;;;;;5.70;2.50;;;;;;;20.73;57.77;99864.63;223996;1267;137969;-87
2023/07/19 19:51:51;;;;;;;8.00;3.20;;;;;;;20.57;58.34;99871.26;223442;1267;140254;-86
2023/07/19 19:56:51;;;;;;;13.60;4.20;;;;;;;20.43;58.78;99863.71;224130;1267;137813;-86
2023/07/19 20:01:52;;;;;;;7.10;2.80;;;;;;;20.30;59.11;99859.89;223756;1268;141500;-86
2023/07/19 20:06:53;;;;;;;14.70;3.60;;;;;;;20.24;59.47;99865.02;223989;1267;138952;-86
2023/07/19 20:11:55;;;;;;;15.50;3.40;;;;;;;20.12;60.23;99859.05;223565;1267;139641;-85
2023/07/19 20:16:55;;;;;;;10.30;2.50;;;;;;;19.99;60.41;99856.47;223979;1268;138102;-86
2023/07/19 20:21:56;;;;;;;9.60;2.50;;;;;;;19.88;61.01;99858.31;223541;1267;141384;-90
2023/07/19 20:26:56;;;;;;;5.80;2.20;;;;;;;19.73;62.11;99858.30;223997;1267;138558;-89
2023/07/19 20:31:56;;;;;;;10.00;2.90;;;;;;;19.60;62.52;99858.91;223551;1272;140125;-93
2023/07/19 20:36:57;;;;;;;16.80;3.60;;;;;;;19.52;63.00;99852.48;224080;1267;138021;-93
2023/07/19 20:41:57;;;;;;;7.20;2.50;;;;;;;19.45;62.95;99851.06;223356;1268;140250;-90
2023/07/19 20:46:58;;;;;;;9.20;3.00;;;;;;;19.43;63.00;99846.52;224046;1267;137798;-90
2023/07/19 20:51:58;;;;;;;9.20;3.20;;;;;;;19.38;64.18;99845.56;223395;1270;141247;-90
2023/07/19 20:56:58;;;;;;;8.40;2.90;;;;;;;19.32;64.58;99843.15;223977;1270;138249;-90
2023/07/19 21:01:59;;;;;;;13.10;3.90;;;;;;;19.27;65.20;99840.84;223669;1267;140834;-91
2023/07/19 21:06:59;;;;;;;13.70;3.40;;;;;;;19.25;65.52;99844.09;224022;1270;139489;-89
2023/07/19 21:12:00;;;;;;;10.90;3.30;;;;;;;19.22;65.83;99839.33;223522;1270;139522;-90
2023/07/19 21:17:03;;;;;;;9.70;3.40;;;;;;;19.19;65.77;99841.39;223957;1267;138687;-90
2023/07/19 21:22:03;;;;;;;7.00;2.90;;;;;;;19.16;66.60;99838.39;223321;1268;140042;-89
2023/07/19 21:27:04;;;;;;;5.60;2.50;;;;;;;19.13;67.11;99841.19;223931;1268;137814;-86
2023/07/19 21:32:05;;;;;;;10.80;3.40;;;;;;;19.11;67.68;99861.95;223642;1268;139916;-90
2023/07/19 21:37:06;;;;;;;9.50;4.00;;;;;;;19.11;71.58;99867.00;223987;1267;137907;-92
2023/07/19 21:42:07;;;;;;;9.90;4.20;;;;;;;18.98;74.89;99866.45;223099;1267;272170;-93
2023/07/19 21:47:07;;;;;;;16.00;4.80;;;;;;;18.82;76.68;99861.98;223972;1267;138526;-92
2023/07/19 21:52:08;;;;;;;10.00;4.40;;;;;;;18.71;77.27;99857.19;223351;1267;140452;-92
2023/07/19 21:57:08;;;;;;;9.20;3.70;;;;;;;18.60;78.96;99844.16;223939;1267;138667;-93
2023/07/19 22:02:09;;;;;;;9.60;4.20;;;;;;;18.52;79.05;99842.19;223514;1267;141626;-92
2023/07/19 22:07:10;;;;;;;11.00;3.90;;;;;;;18.42;79.75;99841.22;224063;1267;138340;-90
2023/07/19 22:12:10;;;;;;;6.60;3.60;;;;;;;18.31;80.84;99833.90;223417;1268;140958;-92
2023/07/19 22:17:11;;;;;;;8.90;3.70;;;;;;;18.20;81.52;99824.08;224020;1267;138604;-91
2023/07/19 22:22:11;;;;;;;10.20;3.60;;;;;;;18.09;82.45;99813.20;223520;1267;140791;-92
2023/07/19 22:27:12;;;;;;;8.30;3.30;;;;;;;17.98;82.89;99817.73;223969;1267;139725;-91
2023/07/19 22:32:12;;;;;;;11.30;4.00;;;;;;;17.90;82.94;99822.59;223420;1267;140628;-91
2023/07/19 22:37:12;;;;;;;6.60;3.60;;;;;;;17.82;83.34;99823.92;223963;1272;138485;-91
2023/07/19 22:42:13;;;;;;;7.50;3.70;;;;;;;17.77;83.27;99827.20;223480;1267;140894;-93
2023/07/19 22:47:16;;;;;;;7.90;3.60;;;;;;;17.73;83.67;99828.39;223865;1271;138593;-93
2023/07/19 22:52:17;;;;;;;6.70;4.00;;;;;;;17.72;83.96;99824.53;223419;1267;140413;-92
2023/07/19 22:57:17;;;;;;;7.20;3.60;;;;;;;17.69;84.48;99818.80;223872;1267;138604;-92